Kezdőlap
METAR-TAF:

METAR-TAF

Repülőterek :

Aktau, Kazahsztán

földrajzi szélesség: 43-52-12N, földrajzi hosszúság: 051-06E, magasság: 22 m

Jelenlegi meteorológiai megfigyelések

A jelentés 19 perccel ezelõtt készült, 10:30 UTC
Kelet-délkeleti szél 14 kt
Hőmérséklet 4°C
Páratartalom 75%
Légköri nyomás 1020 hPa
Látótávolság 10 km, vagy több
felhőtlen 1500 m magasságban, és nincs gomolyfelhõ

METAR: UATE 131030Z 12007MPS CAVOK 04/M00 Q1020 R12/0///70 NOSIG RMK QFE763/1018

Idő: 15:49 (10:49 UTC)

Előrejelzés

A jelentés 5 órával és 47 perccel ezelõtt készült, 05:02 UTC
Az előrejelzés 13-én 06 óra UTC és 14-én 06 óra UTC között érvényes
Kelet-északkeleti szél 12 kt
Látótávolság 10 km, vagy több
felhőtlen 1500 m magasságban, és nincs gomolyfelhõ
13-én 08 óra UTC és 13-én 10 óra UTC között fokozatosan kialakuló
Keleti szél 12 kt széllökések: 23 kt

TAF: UATE 130502Z 1306/1406 06006MPS CAVOK TX06/1309Z TNM04/1403Z BECMG 1308/1310 10006G12MPS

Meteorológiai megfigyelések és előrejelzések több, mint 4000 repülőtéren (METAR és TAF jelentéseket).

A térképen piros és sárga pontok jelzik az elérhető meteorológiai állomásokat.

Mozgassa az egeret a pont fölött, hogy megjelenjen az állomás neve.

Azután kattintson az időjárási megfigyelések és előrejelzések megtekintéséhez.

A térkép megváltoztatása: kattintson a fekete keresztel jelölt zöld gombra ráközelítéshez, a vonallal jelölt zöld gombra távolításhoz, vagy a zöld nyilakra a szomszédos térképek eléréséhez.


METAR-TAF: